Verstervig, Denmark
Current Conditions -  °F | °C
As of 7:50 PM on Saturday 25 Oct 2014 (Local Time) from EKKA Reporting Station
Broken Clouds Broken Clouds  
Wind Chill: 11°   Ceiling: 4700
Heat Index: 11°   Visibility: 6mi
Dew Point:   Wind: 7mph
Humidity: 88%   Direction: 190°S
Pressure: 29.97"   Gusts: NA
Location:  56.7°N, 8.22°E
Report Text: EKKA 251750Z AUTO 19006KT 9999NDV BKN047/// 11/09 Q1015
Loading
Personal Weather Stations






























Interactive Weather Map
Tropical Storm Tracking
New forecast layout! Learn more

10-Day Weather Forecast

Advertisements
Track Severe Weather on mobile